sensor_id;sensor_type;location;lat;lon;timestamp;temperature;humidity
47022;DHT22;32779;52.264;6.154;2023-05-25T00:01:41;9.40;99.90
47022;DHT22;32779;52.264;6.154;2023-05-25T00:04:08;9.40;99.90
47022;DHT22;32779;52.264;6.154;2023-05-25T00:06:35;9.30;99.90
47022;DHT22;32779;52.264;6.154;2023-05-25T00:09:05;9.30;99.90
47022;DHT22;32779;52.264;6.154;2023-05-25T00:11:31;9.20;99.90
47022;DHT22;32779;52.264;6.154;2023-05-25T00:13:57;9.20;99.90
47022;DHT22;32779;52.264;6.154;2023-05-25T00:16:22;9.20;99.90
47022;DHT22;32779;52.264;6.154;2023-05-25T00:18:48;9.20;99.90
47022;DHT22;32779;52.264;6.154;2023-05-25T00:21:14;9.20;99.90
47022;DHT22;32779;52.264;6.154;2023-05-25T00:23:41;9.20;99.90
47022;DHT22;32779;52.264;6.154;2023-05-25T00:26:06;9.10;99.90
47022;DHT22;32779;52.264;6.154;2023-05-25T00:28:32;9.10;99.90
47022;DHT22;32779;52.264;6.154;2023-05-25T00:30:58;9.10;99.90
47022;DHT22;32779;52.264;6.154;2023-05-25T00:33:23;9.00;99.90
47022;DHT22;32779;52.264;6.154;2023-05-25T00:35:49;9.00;99.90
47022;DHT22;32779;52.264;6.154;2023-05-25T00:38:16;8.90;99.90
47022;DHT22;32779;52.264;6.154;2023-05-25T00:40:42;8.90;99.90
47022;DHT22;32779;52.264;6.154;2023-05-25T00:43:08;8.90;99.90
47022;DHT22;32779;52.264;6.154;2023-05-25T00:45:34;8.80;99.90
47022;DHT22;32779;52.264;6.154;2023-05-25T00:48:00;8.80;99.90
47022;DHT22;32779;52.264;6.154;2023-05-25T00:50:38;8.80;99.90
47022;DHT22;32779;52.264;6.154;2023-05-25T00:53:05;8.80;99.90
47022;DHT22;32779;52.264;6.154;2023-05-25T00:55:35;8.80;99.90
47022;DHT22;32779;52.264;6.154;2023-05-25T00:58:03;8.80;99.90
47022;DHT22;32779;52.264;6.154;2023-05-25T01:00:31;8.80;99.90
47022;DHT22;32779;52.264;6.154;2023-05-25T01:02:58;8.80;99.90
47022;DHT22;32779;52.264;6.154;2023-05-25T01:05:24;8.70;99.90
47022;DHT22;32779;52.264;6.154;2023-05-25T01:07:55;8.70;99.90
47022;DHT22;32779;52.264;6.154;2023-05-25T01:10:23;8.70;99.90
47022;DHT22;32779;52.264;6.154;2023-05-25T01:12:52;8.70;99.90
47022;DHT22;32779;52.264;6.154;2023-05-25T01:15:18;8.70;99.90
47022;DHT22;32779;52.264;6.154;2023-05-25T01:17:45;8.70;99.90
47022;DHT22;32779;52.264;6.154;2023-05-25T01:20:10;8.70;99.90
47022;DHT22;32779;52.264;6.154;2023-05-25T01:22:42;8.60;99.90
47022;DHT22;32779;52.264;6.154;2023-05-25T01:25:22;8.60;99.90
47022;DHT22;32779;52.264;6.154;2023-05-25T01:28:09;8.60;99.90
47022;DHT22;32779;52.264;6.154;2023-05-25T01:30:37;8.60;99.90
47022;DHT22;32779;52.264;6.154;2023-05-25T01:33:05;8.50;99.90
47022;DHT22;32779;52.264;6.154;2023-05-25T01:35:32;8.50;99.90
47022;DHT22;32779;52.264;6.154;2023-05-25T01:37:58;8.50;99.90
47022;DHT22;32779;52.264;6.154;2023-05-25T01:40:23;8.50;99.90
47022;DHT22;32779;52.264;6.154;2023-05-25T01:42:49;8.50;99.90
47022;DHT22;32779;52.264;6.154;2023-05-25T01:45:15;8.50;99.90
47022;DHT22;32779;52.264;6.154;2023-05-25T01:47:56;8.40;99.90
47022;DHT22;32779;52.264;6.154;2023-05-25T01:50:35;8.40;99.90
47022;DHT22;32779;52.264;6.154;2023-05-25T01:53:09;8.40;99.90
47022;DHT22;32779;52.264;6.154;2023-05-25T01:55:43;8.30;99.90
47022;DHT22;32779;52.264;6.154;2023-05-25T01:58:13;8.30;99.90
47022;DHT22;32779;52.264;6.154;2023-05-25T02:00:39;8.30;99.90
47022;DHT22;32779;52.264;6.154;2023-05-25T02:03:06;8.30;99.90
47022;DHT22;32779;52.264;6.154;2023-05-25T02:05:31;8.30;99.90
47022;DHT22;32779;52.264;6.154;2023-05-25T02:07:57;8.20;99.90
47022;DHT22;32779;52.264;6.154;2023-05-25T02:10:23;8.20;99.90
47022;DHT22;32779;52.264;6.154;2023-05-25T02:12:48;8.10;99.90
47022;DHT22;32779;52.264;6.154;2023-05-25T02:15:14;8.10;99.90
47022;DHT22;32779;52.264;6.154;2023-05-25T02:17:40;8.00;99.90
47022;DHT22;32779;52.264;6.154;2023-05-25T02:20:06;8.00;99.90
47022;DHT22;32779;52.264;6.154;2023-05-25T02:22:32;8.00;99.90
47022;DHT22;32779;52.264;6.154;2023-05-25T02:24:58;7.90;99.90
47022;DHT22;32779;52.264;6.154;2023-05-25T02:27:24;7.90;99.90
47022;DHT22;32779;52.264;6.154;2023-05-25T02:29:50;7.90;99.90
47022;DHT22;32779;52.264;6.154;2023-05-25T02:32:17;7.90;99.90
47022;DHT22;32779;52.264;6.154;2023-05-25T02:34:43;7.90;99.90
47022;DHT22;32779;52.264;6.154;2023-05-25T02:37:08;7.90;99.90
47022;DHT22;32779;52.264;6.154;2023-05-25T02:39:34;7.90;99.90
47022;DHT22;32779;52.264;6.154;2023-05-25T02:42:00;7.80;99.90
47022;DHT22;32779;52.264;6.154;2023-05-25T02:44:25;7.80;99.90
47022;DHT22;32779;52.264;6.154;2023-05-25T02:46:51;7.70;99.90
47022;DHT22;32779;52.264;6.154;2023-05-25T02:49:16;7.80;99.90
47022;DHT22;32779;52.264;6.154;2023-05-25T02:51:42;7.80;99.90
47022;DHT22;32779;52.264;6.154;2023-05-25T02:54:08;7.90;99.90
47022;DHT22;32779;52.264;6.154;2023-05-25T02:56:33;7.80;99.90
47022;DHT22;32779;52.264;6.154;2023-05-25T02:58:59;7.80;99.90
47022;DHT22;32779;52.264;6.154;2023-05-25T03:01:24;7.80;99.90
47022;DHT22;32779;52.264;6.154;2023-05-25T03:03:50;7.80;99.90
47022;DHT22;32779;52.264;6.154;2023-05-25T03:06:19;7.80;99.90
47022;DHT22;32779;52.264;6.154;2023-05-25T03:08:48;7.80;99.90
47022;DHT22;32779;52.264;6.154;2023-05-25T03:11:13;7.80;99.90
47022;DHT22;32779;52.264;6.154;2023-05-25T03:13:39;7.70;99.90
47022;DHT22;32779;52.264;6.154;2023-05-25T03:16:05;7.80;99.90
47022;DHT22;32779;52.264;6.154;2023-05-25T03:18:31;7.80;99.90
47022;DHT22;32779;52.264;6.154;2023-05-25T03:20:56;7.70;99.90
47022;DHT22;32779;52.264;6.154;2023-05-25T03:23:22;7.70;99.90
47022;DHT22;32779;52.264;6.154;2023-05-25T03:25:49;7.70;99.90
47022;DHT22;32779;52.264;6.154;2023-05-25T03:28:14;7.70;99.90
47022;DHT22;32779;52.264;6.154;2023-05-25T03:30:40;7.70;99.90
47022;DHT22;32779;52.264;6.154;2023-05-25T03:33:06;7.70;99.90
47022;DHT22;32779;52.264;6.154;2023-05-25T03:35:31;7.60;99.90
47022;DHT22;32779;52.264;6.154;2023-05-25T03:37:57;7.60;99.90
47022;DHT22;32779;52.264;6.154;2023-05-25T03:40:22;7.70;99.90
47022;DHT22;32779;52.264;6.154;2023-05-25T03:42:48;7.60;99.90
47022;DHT22;32779;52.264;6.154;2023-05-25T03:45:14;7.60;99.90
47022;DHT22;32779;52.264;6.154;2023-05-25T03:47:39;7.60;99.90
47022;DHT22;32779;52.264;6.154;2023-05-25T03:50:06;7.60;99.90
47022;DHT22;32779;52.264;6.154;2023-05-25T03:52:32;7.60;99.90
47022;DHT22;32779;52.264;6.154;2023-05-25T03:54:57;7.60;99.90
47022;DHT22;32779;52.264;6.154;2023-05-25T03:57:23;7.70;99.90
47022;DHT22;32779;52.264;6.154;2023-05-25T03:59:49;7.70;99.90
47022;DHT22;32779;52.264;6.154;2023-05-25T04:02:14;7.70;99.90
47022;DHT22;32779;52.264;6.154;2023-05-25T04:04:40;7.70;99.90
47022;DHT22;32779;52.264;6.154;2023-05-25T04:07:06;7.70;99.90
47022;DHT22;32779;52.264;6.154;2023-05-25T04:09:32;7.70;99.90
47022;DHT22;32779;52.264;6.154;2023-05-25T04:11:58;7.80;99.90
47022;DHT22;32779;52.264;6.154;2023-05-25T04:14:23;7.90;99.90
47022;DHT22;32779;52.264;6.154;2023-05-25T04:16:49;7.90;99.90
47022;DHT22;32779;52.264;6.154;2023-05-25T04:19:15;7.90;99.90
47022;DHT22;32779;52.264;6.154;2023-05-25T04:21:40;7.90;99.90
47022;DHT22;32779;52.264;6.154;2023-05-25T04:24:06;8.00;99.90
47022;DHT22;32779;52.264;6.154;2023-05-25T04:26:32;8.00;99.90
47022;DHT22;32779;52.264;6.154;2023-05-25T04:28:58;8.00;99.90
47022;DHT22;32779;52.264;6.154;2023-05-25T04:31:26;8.00;99.90
47022;DHT22;32779;52.264;6.154;2023-05-25T04:33:52;8.10;99.90
47022;DHT22;32779;52.264;6.154;2023-05-25T04:36:20;8.10;99.90
47022;DHT22;32779;52.264;6.154;2023-05-25T04:38:47;8.10;99.90
47022;DHT22;32779;52.264;6.154;2023-05-25T04:41:13;8.20;99.90
47022;DHT22;32779;52.264;6.154;2023-05-25T04:43:38;8.10;99.90
47022;DHT22;32779;52.264;6.154;2023-05-25T04:46:04;8.20;99.90
47022;DHT22;32779;52.264;6.154;2023-05-25T04:48:32;8.20;99.90
47022;DHT22;32779;52.264;6.154;2023-05-25T04:50:58;8.30;99.90
47022;DHT22;32779;52.264;6.154;2023-05-25T04:53:28;8.40;99.90
47022;DHT22;32779;52.264;6.154;2023-05-25T04:55:54;8.50;99.90
47022;DHT22;32779;52.264;6.154;2023-05-25T04:58:21;8.50;99.90
47022;DHT22;32779;52.264;6.154;2023-05-25T05:00:46;8.60;99.90
47022;DHT22;32779;52.264;6.154;2023-05-25T05:03:12;8.70;99.90
47022;DHT22;32779;52.264;6.154;2023-05-25T05:05:38;8.70;99.90
47022;DHT22;32779;52.264;6.154;2023-05-25T05:08:04;8.80;99.90
47022;DHT22;32779;52.264;6.154;2023-05-25T05:10:29;8.80;99.90
47022;DHT22;32779;52.264;6.154;2023-05-25T05:12:55;8.90;99.90
47022;DHT22;32779;52.264;6.154;2023-05-25T05:15:21;8.90;99.90
47022;DHT22;32779;52.264;6.154;2023-05-25T05:17:46;9.00;99.90
47022;DHT22;32779;52.264;6.154;2023-05-25T05:20:12;9.10;99.90
47022;DHT22;32779;52.264;6.154;2023-05-25T05:22:38;9.10;99.90
47022;DHT22;32779;52.264;6.154;2023-05-25T05:25:04;9.20;99.90
47022;DHT22;32779;52.264;6.154;2023-05-25T05:27:29;9.30;99.90
47022;DHT22;32779;52.264;6.154;2023-05-25T05:29:55;9.40;99.90
47022;DHT22;32779;52.264;6.154;2023-05-25T05:32:20;9.40;99.90
47022;DHT22;32779;52.264;6.154;2023-05-25T05:34:46;9.60;99.90
47022;DHT22;32779;52.264;6.154;2023-05-25T05:37:12;9.60;99.90
47022;DHT22;32779;52.264;6.154;2023-05-25T05:39:37;9.60;99.90
47022;DHT22;32779;52.264;6.154;2023-05-25T05:42:03;9.70;99.90
47022;DHT22;32779;52.264;6.154;2023-05-25T05:44:28;9.80;99.90
47022;DHT22;32779;52.264;6.154;2023-05-25T05:46:55;9.80;99.90
47022;DHT22;32779;52.264;6.154;2023-05-25T05:49:25;9.90;99.90
47022;DHT22;32779;52.264;6.154;2023-05-25T05:51:51;10.00;99.90
47022;DHT22;32779;52.264;6.154;2023-05-25T05:54:17;10.10;99.90
47022;DHT22;32779;52.264;6.154;2023-05-25T05:56:42;10.20;99.90
47022;DHT22;32779;52.264;6.154;2023-05-25T05:59:10;10.30;99.90
47022;DHT22;32779;52.264;6.154;2023-05-25T06:01:36;10.40;99.90
47022;DHT22;32779;52.264;6.154;2023-05-25T06:04:03;10.50;99.90
47022;DHT22;32779;52.264;6.154;2023-05-25T06:06:29;10.60;99.90
47022;DHT22;32779;52.264;6.154;2023-05-25T06:08:57;10.70;99.90
47022;DHT22;32779;52.264;6.154;2023-05-25T06:11:23;10.90;99.90
47022;DHT22;32779;52.264;6.154;2023-05-25T06:13:48;10.90;99.90
47022;DHT22;32779;52.264;6.154;2023-05-25T06:16:14;11.00;99.90
47022;DHT22;32779;52.264;6.154;2023-05-25T06:18:39;11.10;99.90
47022;DHT22;32779;52.264;6.154;2023-05-25T06:21:05;11.20;99.90
47022;DHT22;32779;52.264;6.154;2023-05-25T06:23:31;11.20;99.90
47022;DHT22;32779;52.264;6.154;2023-05-25T06:25:56;11.30;99.90
47022;DHT22;32779;52.264;6.154;2023-05-25T06:28:22;11.30;99.90
47022;DHT22;32779;52.264;6.154;2023-05-25T06:30:48;11.40;99.90
47022;DHT22;32779;52.264;6.154;2023-05-25T06:33:13;11.50;99.90
47022;DHT22;32779;52.264;6.154;2023-05-25T06:35:39;11.60;99.90
47022;DHT22;32779;52.264;6.154;2023-05-25T06:38:04;11.70;99.90
47022;DHT22;32779;52.264;6.154;2023-05-25T06:40:30;11.80;99.90
47022;DHT22;32779;52.264;6.154;2023-05-25T06:42:56;11.90;99.90
47022;DHT22;32779;52.264;6.154;2023-05-25T06:45:21;12.10;99.90
47022;DHT22;32779;52.264;6.154;2023-05-25T06:47:47;12.20;99.90
47022;DHT22;32779;52.264;6.154;2023-05-25T06:50:12;12.30;99.90
47022;DHT22;32779;52.264;6.154;2023-05-25T06:52:38;12.50;99.90
47022;DHT22;32779;52.264;6.154;2023-05-25T06:55:04;12.60;99.90
47022;DHT22;32779;52.264;6.154;2023-05-25T06:57:29;12.80;99.90
47022;DHT22;32779;52.264;6.154;2023-05-25T06:59:55;13.10;99.90
47022;DHT22;32779;52.264;6.154;2023-05-25T07:02:21;13.40;99.90
47022;DHT22;32779;52.264;6.154;2023-05-25T07:04:46;13.60;99.90
47022;DHT22;32779;52.264;6.154;2023-05-25T07:07:12;13.80;99.90
47022;DHT22;32779;52.264;6.154;2023-05-25T07:09:38;13.90;99.90
47022;DHT22;32779;52.264;6.154;2023-05-25T07:12:05;14.00;99.90
47022;DHT22;32779;52.264;6.154;2023-05-25T07:14:33;14.10;99.90
47022;DHT22;32779;52.264;6.154;2023-05-25T07:16:59;14.10;99.90
47022;DHT22;32779;52.264;6.154;2023-05-25T07:19:25;14.10;99.90
47022;DHT22;32779;52.264;6.154;2023-05-25T07:21:50;14.00;99.90
47022;DHT22;32779;52.264;6.154;2023-05-25T07:24:16;13.80;99.90
47022;DHT22;32779;52.264;6.154;2023-05-25T07:26:42;13.90;99.90
47022;DHT22;32779;52.264;6.154;2023-05-25T07:29:09;14.00;99.90
47022;DHT22;32779;52.264;6.154;2023-05-25T07:31:34;14.20;99.90
47022;DHT22;32779;52.264;6.154;2023-05-25T07:34:00;14.30;99.90
47022;DHT22;32779;52.264;6.154;2023-05-25T07:36:26;14.40;99.90
47022;DHT22;32779;52.264;6.154;2023-05-25T07:38:52;14.60;99.90
47022;DHT22;32779;52.264;6.154;2023-05-25T07:41:17;14.70;99.90
47022;DHT22;32779;52.264;6.154;2023-05-25T07:43:43;14.80;99.90
47022;DHT22;32779;52.264;6.154;2023-05-25T07:46:08;14.90;99.90
47022;DHT22;32779;52.264;6.154;2023-05-25T07:48:34;15.10;99.90
47022;DHT22;32779;52.264;6.154;2023-05-25T07:50:59;15.30;99.90
47022;DHT22;32779;52.264;6.154;2023-05-25T07:53:25;15.30;99.90
47022;DHT22;32779;52.264;6.154;2023-05-25T07:55:51;15.40;99.90
47022;DHT22;32779;52.264;6.154;2023-05-25T07:58:16;15.20;99.90
47022;DHT22;32779;52.264;6.154;2023-05-25T08:00:42;15.20;99.90
47022;DHT22;32779;52.264;6.154;2023-05-25T08:03:08;15.20;99.90
47022;DHT22;32779;52.264;6.154;2023-05-25T08:05:35;15.50;99.90
47022;DHT22;32779;52.264;6.154;2023-05-25T08:08:01;15.70;99.90
47022;DHT22;32779;52.264;6.154;2023-05-25T08:10:26;15.90;99.90
47022;DHT22;32779;52.264;6.154;2023-05-25T08:12:57;15.90;99.90
47022;DHT22;32779;52.264;6.154;2023-05-25T08:15:23;15.80;99.90
47022;DHT22;32779;52.264;6.154;2023-05-25T08:17:49;15.70;99.90
47022;DHT22;32779;52.264;6.154;2023-05-25T08:20:15;15.50;99.90
47022;DHT22;32779;52.264;6.154;2023-05-25T08:22:41;15.40;99.90
47022;DHT22;32779;52.264;6.154;2023-05-25T08:25:08;15.30;99.90
47022;DHT22;32779;52.264;6.154;2023-05-25T08:27:34;15.30;99.90
47022;DHT22;32779;52.264;6.154;2023-05-25T08:29:59;15.20;99.90
47022;DHT22;32779;52.264;6.154;2023-05-25T08:32:26;15.30;99.90
47022;DHT22;32779;52.264;6.154;2023-05-25T08:34:51;15.10;99.90
47022;DHT22;32779;52.264;6.154;2023-05-25T08:37:17;15.30;99.90
47022;DHT22;32779;52.264;6.154;2023-05-25T08:39:44;15.60;99.90
47022;DHT22;32779;52.264;6.154;2023-05-25T08:42:09;15.70;99.90
47022;DHT22;32779;52.264;6.154;2023-05-25T08:44:35;15.80;99.90
47022;DHT22;32779;52.264;6.154;2023-05-25T08:47:05;15.80;99.90
47022;DHT22;32779;52.264;6.154;2023-05-25T08:49:36;15.90;99.90
47022;DHT22;32779;52.264;6.154;2023-05-25T08:52:03;16.00;99.90
47022;DHT22;32779;52.264;6.154;2023-05-25T08:54:34;16.30;99.90
47022;DHT22;32779;52.264;6.154;2023-05-25T08:57:16;16.70;99.90
47022;DHT22;32779;52.264;6.154;2023-05-25T08:59:54;16.90;99.90
47022;DHT22;32779;52.264;6.154;2023-05-25T09:05:26;16.50;99.90
47022;DHT22;32779;52.264;6.154;2023-05-25T09:07:52;16.30;99.90
47022;DHT22;32779;52.264;6.154;2023-05-25T09:10:22;16.30;99.90
47022;DHT22;32779;52.264;6.154;2023-05-25T09:12:49;16.20;99.90
47022;DHT22;32779;52.264;6.154;2023-05-25T09:15:16;16.10;99.90
47022;DHT22;32779;52.264;6.154;2023-05-25T09:17:41;16.30;99.90
47022;DHT22;32779;52.264;6.154;2023-05-25T09:20:09;16.50;99.90
47022;DHT22;32779;52.264;6.154;2023-05-25T09:22:35;16.50;99.90
47022;DHT22;32779;52.264;6.154;2023-05-25T09:25:03;16.40;99.90
47022;DHT22;32779;52.264;6.154;2023-05-25T09:27:34;16.20;99.90
47022;DHT22;32779;52.264;6.154;2023-05-25T09:30:01;16.10;99.90
47022;DHT22;32779;52.264;6.154;2023-05-25T09:32:26;16.20;99.90
47022;DHT22;32779;52.264;6.154;2023-05-25T09:34:52;16.40;99.90
47022;DHT22;32779;52.264;6.154;2023-05-25T09:37:20;16.60;99.90
47022;DHT22;32779;52.264;6.154;2023-05-25T09:39:46;16.90;99.90
47022;DHT22;32779;52.264;6.154;2023-05-25T09:42:12;17.20;99.90
47022;DHT22;32779;52.264;6.154;2023-05-25T09:44:39;17.50;99.90
47022;DHT22;32779;52.264;6.154;2023-05-25T09:47:07;17.50;99.90
47022;DHT22;32779;52.264;6.154;2023-05-25T09:49:34;17.50;99.90
47022;DHT22;32779;52.264;6.154;2023-05-25T09:52:00;17.50;99.90
47022;DHT22;32779;52.264;6.154;2023-05-25T09:54:25;17.40;99.90
47022;DHT22;32779;52.264;6.154;2023-05-25T09:56:51;17.40;99.90
47022;DHT22;32779;52.264;6.154;2023-05-25T09:59:17;17.40;99.90
47022;DHT22;32779;52.264;6.154;2023-05-25T10:01:42;17.30;99.90
47022;DHT22;32779;52.264;6.154;2023-05-25T10:04:15;17.10;99.90
47022;DHT22;32779;52.264;6.154;2023-05-25T10:06:40;16.90;99.90
47022;DHT22;32779;52.264;6.154;2023-05-25T10:09:06;16.90;99.90
47022;DHT22;32779;52.264;6.154;2023-05-25T10:11:33;17.00;99.90
47022;DHT22;32779;52.264;6.154;2023-05-25T10:14:05;17.20;99.90
47022;DHT22;32779;52.264;6.154;2023-05-25T10:16:33;17.20;99.90
47022;DHT22;32779;52.264;6.154;2023-05-25T10:19:18;17.30;99.90
47022;DHT22;32779;52.264;6.154;2023-05-25T10:21:57;17.20;99.90
47022;DHT22;32779;52.264;6.154;2023-05-25T10:27:57;16.90;99.90
47022;DHT22;32779;52.264;6.154;2023-05-25T10:30:24;16.90;99.90
47022;DHT22;32779;52.264;6.154;2023-05-25T10:32:51;16.90;99.90
47022;DHT22;32779;52.264;6.154;2023-05-25T10:35:18;17.10;99.90
47022;DHT22;32779;52.264;6.154;2023-05-25T10:37:44;17.20;99.60
47022;DHT22;32779;52.264;6.154;2023-05-25T10:40:11;17.30;99.30
47022;DHT22;32779;52.264;6.154;2023-05-25T10:42:38;17.30;99.20
47022;DHT22;32779;52.264;6.154;2023-05-25T10:45:04;17.40;98.20
47022;DHT22;32779;52.264;6.154;2023-05-25T10:47:31;17.30;98.50
47022;DHT22;32779;52.264;6.154;2023-05-25T10:49:58;17.30;98.80
47022;DHT22;32779;52.264;6.154;2023-05-25T10:52:29;17.30;98.30
47022;DHT22;32779;52.264;6.154;2023-05-25T10:54:56;17.30;98.10
47022;DHT22;32779;52.264;6.154;2023-05-25T10:57:23;17.20;97.80
47022;DHT22;32779;52.264;6.154;2023-05-25T10:59:54;17.20;97.70
47022;DHT22;32779;52.264;6.154;2023-05-25T11:02:28;17.30;97.70
47022;DHT22;32779;52.264;6.154;2023-05-25T11:07:54;17.40;98.20
47022;DHT22;32779;52.264;6.154;2023-05-25T11:10:43;17.50;98.20
47022;DHT22;32779;52.264;6.154;2023-05-25T11:18:54;17.70;97.60
47022;DHT22;32779;52.264;6.154;2023-05-25T11:26:29;17.70;97.40
47022;DHT22;32779;52.264;6.154;2023-05-25T11:28:56;17.70;98.00
47022;DHT22;32779;52.264;6.154;2023-05-25T11:31:28;17.70;98.10
47022;DHT22;32779;52.264;6.154;2023-05-25T11:33:56;17.70;97.80
47022;DHT22;32779;52.264;6.154;2023-05-25T11:36:23;17.80;97.80
47022;DHT22;32779;52.264;6.154;2023-05-25T11:38:49;17.70;98.10
47022;DHT22;32779;52.264;6.154;2023-05-25T11:41:17;17.70;97.50
47022;DHT22;32779;52.264;6.154;2023-05-25T11:43:47;17.80;97.60
47022;DHT22;32779;52.264;6.154;2023-05-25T11:46:13;17.90;98.10
47022;DHT22;32779;52.264;6.154;2023-05-25T11:48:43;18.00;97.40
47022;DHT22;32779;52.264;6.154;2023-05-25T11:51:09;18.10;97.30
47022;DHT22;32779;52.264;6.154;2023-05-25T11:53:40;18.10;97.30
47022;DHT22;32779;52.264;6.154;2023-05-25T11:56:05;18.00;96.50
47022;DHT22;32779;52.264;6.154;2023-05-25T11:58:34;17.90;97.40
47022;DHT22;32779;52.264;6.154;2023-05-25T12:03:39;18.00;98.50
47022;DHT22;32779;52.264;6.154;2023-05-25T12:06:04;18.30;97.80
47022;DHT22;32779;52.264;6.154;2023-05-25T12:08:33;18.30;96.90
47022;DHT22;32779;52.264;6.154;2023-05-25T12:11:00;18.20;96.60
47022;DHT22;32779;52.264;6.154;2023-05-25T12:13:25;18.30;96.70
47022;DHT22;32779;52.264;6.154;2023-05-25T12:15:54;18.10;96.90
47022;DHT22;32779;52.264;6.154;2023-05-25T12:18:22;18.20;98.20
47022;DHT22;32779;52.264;6.154;2023-05-25T12:20:48;18.30;98.10
47022;DHT22;32779;52.264;6.154;2023-05-25T12:23:15;18.30;98.10
47022;DHT22;32779;52.264;6.154;2023-05-25T12:25:40;18.40;98.50
47022;DHT22;32779;52.264;6.154;2023-05-25T12:30:36;18.30;97.90
47022;DHT22;32779;52.264;6.154;2023-05-25T12:33:02;18.30;98.10
47022;DHT22;32779;52.264;6.154;2023-05-25T12:35:28;18.20;97.50
47022;DHT22;32779;52.264;6.154;2023-05-25T12:38:11;18.30;97.70
47022;DHT22;32779;52.264;6.154;2023-05-25T12:40:37;18.30;97.50
47022;DHT22;32779;52.264;6.154;2023-05-25T12:43:02;18.30;97.50
47022;DHT22;32779;52.264;6.154;2023-05-25T12:45:28;18.30;97.40
47022;DHT22;32779;52.264;6.154;2023-05-25T12:47:54;18.30;97.20
47022;DHT22;32779;52.264;6.154;2023-05-25T12:50:19;18.30;96.90
47022;DHT22;32779;52.264;6.154;2023-05-25T12:52:46;18.30;95.70
47022;DHT22;32779;52.264;6.154;2023-05-25T12:55:22;17.90;96.10
47022;DHT22;32779;52.264;6.154;2023-05-25T12:58:25;18.00;96.90
47022;DHT22;32779;52.264;6.154;2023-05-25T13:00:51;18.10;96.00
47022;DHT22;32779;52.264;6.154;2023-05-25T13:03:17;18.10;96.20
47022;DHT22;32779;52.264;6.154;2023-05-25T13:05:43;18.20;96.30
47022;DHT22;32779;52.264;6.154;2023-05-25T13:08:10;18.20;96.60
47022;DHT22;32779;52.264;6.154;2023-05-25T13:10:36;18.30;96.40
47022;DHT22;32779;52.264;6.154;2023-05-25T13:13:02;18.20;95.90
47022;DHT22;32779;52.264;6.154;2023-05-25T13:15:28;18.20;95.90
47022;DHT22;32779;52.264;6.154;2023-05-25T13:17:54;18.30;95.70
47022;DHT22;32779;52.264;6.154;2023-05-25T13:20:23;18.30;95.50
47022;DHT22;32779;52.264;6.154;2023-05-25T13:22:51;18.40;94.70
47022;DHT22;32779;52.264;6.154;2023-05-25T13:25:17;18.60;95.00
47022;DHT22;32779;52.264;6.154;2023-05-25T13:27:45;18.70;95.00
47022;DHT22;32779;52.264;6.154;2023-05-25T13:30:11;18.60;95.20
47022;DHT22;32779;52.264;6.154;2023-05-25T13:32:38;18.40;95.40
47022;DHT22;32779;52.264;6.154;2023-05-25T13:35:04;18.30;94.70
47022;DHT22;32779;52.264;6.154;2023-05-25T13:37:32;18.40;95.30
47022;DHT22;32779;52.264;6.154;2023-05-25T13:39:59;18.40;94.30
47022;DHT22;32779;52.264;6.154;2023-05-25T13:42:24;18.40;94.50
47022;DHT22;32779;52.264;6.154;2023-05-25T13:44:50;18.50;94.80
47022;DHT22;32779;52.264;6.154;2023-05-25T13:47:16;18.50;94.90
47022;DHT22;32779;52.264;6.154;2023-05-25T13:49:42;18.50;94.90
47022;DHT22;32779;52.264;6.154;2023-05-25T13:52:08;18.60;94.70
47022;DHT22;32779;52.264;6.154;2023-05-25T13:54:34;18.70;94.40
47022;DHT22;32779;52.264;6.154;2023-05-25T13:57:00;18.60;93.80
47022;DHT22;32779;52.264;6.154;2023-05-25T13:59:26;18.30;94.10
47022;DHT22;32779;52.264;6.154;2023-05-25T14:01:51;18.30;94.20
47022;DHT22;32779;52.264;6.154;2023-05-25T14:04:17;18.30;94.00
47022;DHT22;32779;52.264;6.154;2023-05-25T14:06:42;18.40;94.50
47022;DHT22;32779;52.264;6.154;2023-05-25T14:09:09;18.40;94.70
47022;DHT22;32779;52.264;6.154;2023-05-25T14:11:35;18.40;94.00
47022;DHT22;32779;52.264;6.154;2023-05-25T14:14:02;18.40;94.30
47022;DHT22;32779;52.264;6.154;2023-05-25T14:16:28;18.40;94.30
47022;DHT22;32779;52.264;6.154;2023-05-25T14:18:53;18.40;93.80
47022;DHT22;32779;52.264;6.154;2023-05-25T14:21:20;18.40;93.30
47022;DHT22;32779;52.264;6.154;2023-05-25T14:23:46;18.40;94.10
47022;DHT22;32779;52.264;6.154;2023-05-25T14:26:12;18.30;94.00
47022;DHT22;32779;52.264;6.154;2023-05-25T14:28:37;18.30;93.80
47022;DHT22;32779;52.264;6.154;2023-05-25T14:31:03;18.30;94.30
47022;DHT22;32779;52.264;6.154;2023-05-25T14:33:29;18.40;93.60
47022;DHT22;32779;52.264;6.154;2023-05-25T14:35:55;18.40;93.50
47022;DHT22;32779;52.264;6.154;2023-05-25T14:38:21;18.40;93.60
47022;DHT22;32779;52.264;6.154;2023-05-25T14:40:47;18.40;94.20
47022;DHT22;32779;52.264;6.154;2023-05-25T14:43:12;18.40;94.10
47022;DHT22;32779;52.264;6.154;2023-05-25T14:45:38;18.50;94.80
47022;DHT22;32779;52.264;6.154;2023-05-25T14:48:03;18.60;94.20
47022;DHT22;32779;52.264;6.154;2023-05-25T14:50:30;18.60;94.30
47022;DHT22;32779;52.264;6.154;2023-05-25T14:52:55;18.70;94.40
47022;DHT22;32779;52.264;6.154;2023-05-25T14:55:21;18.70;93.70
47022;DHT22;32779;52.264;6.154;2023-05-25T14:57:46;18.70;94.00
47022;DHT22;32779;52.264;6.154;2023-05-25T15:00:12;18.70;94.30
47022;DHT22;32779;52.264;6.154;2023-05-25T15:02:38;18.60;93.20
47022;DHT22;32779;52.264;6.154;2023-05-25T15:05:04;18.60;93.30
47022;DHT22;32779;52.264;6.154;2023-05-25T15:07:30;18.50;93.90
47022;DHT22;32779;52.264;6.154;2023-05-25T15:09:55;18.60;94.10
47022;DHT22;32779;52.264;6.154;2023-05-25T15:12:21;18.70;94.30
47022;DHT22;32779;52.264;6.154;2023-05-25T15:14:46;18.70;93.60
47022;DHT22;32779;52.264;6.154;2023-05-25T15:17:12;18.80;93.20
47022;DHT22;32779;52.264;6.154;2023-05-25T15:19:38;18.80;93.40
47022;DHT22;32779;52.264;6.154;2023-05-25T15:22:03;18.70;92.70
47022;DHT22;32779;52.264;6.154;2023-05-25T15:24:29;18.50;92.20
47022;DHT22;32779;52.264;6.154;2023-05-25T15:26:54;18.50;92.70
47022;DHT22;32779;52.264;6.154;2023-05-25T15:29:20;18.50;93.60
47022;DHT22;32779;52.264;6.154;2023-05-25T15:31:49;18.50;93.10
47022;DHT22;32779;52.264;6.154;2023-05-25T15:34:20;18.60;93.40
47022;DHT22;32779;52.264;6.154;2023-05-25T15:36:45;18.60;93.40
47022;DHT22;32779;52.264;6.154;2023-05-25T15:39:11;18.40;93.10
47022;DHT22;32779;52.264;6.154;2023-05-25T15:41:38;18.40;93.10
47022;DHT22;32779;52.264;6.154;2023-05-25T15:44:04;18.40;93.40
47022;DHT22;32779;52.264;6.154;2023-05-25T15:46:33;18.30;93.10
47022;DHT22;32779;52.264;6.154;2023-05-25T15:49:00;18.30;93.90
47022;DHT22;32779;52.264;6.154;2023-05-25T15:51:25;18.30;93.90
47022;DHT22;32779;52.264;6.154;2023-05-25T15:53:51;18.40;94.40
47022;DHT22;32779;52.264;6.154;2023-05-25T15:56:19;18.40;94.10
47022;DHT22;32779;52.264;6.154;2023-05-25T15:58:47;18.50;93.40
47022;DHT22;32779;52.264;6.154;2023-05-25T16:01:13;18.30;93.60